Time;durP1;ratioP1;P1;durP2;ratioP2;P2;SDS_P1;SDS_P2;PMS_P1;PMS_P2;Temp;Humidity;BMP_temperature;BMP_pressure;BME280_temperature;BME280_humidity;BME280_pressure;Samples;Min_cycle;Max_cycle;Signal;HPM_P1;HPM_P2
2023/06/10 00:01:53;;;;;;;5.72;2.70;;;20.10;78.20;;;;;;5053985;28;20035;-70
2023/06/10 00:04:20;;;;;;;8.52;3.30;;;20.10;78.40;;;;;;5053888;28;20057;-70
2023/06/10 00:06:49;;;;;;;8.60;3.00;;;20.00;78.80;;;;;;5054363;28;20025;-70
2023/06/10 00:09:15;;;;;;;6.18;3.13;;;19.90;79.00;;;;;;5053946;28;20454;-72
2023/06/10 00:11:42;;;;;;;6.28;3.25;;;19.80;79.30;;;;;;5053801;28;20041;-70
2023/06/10 00:14:08;;;;;;;5.30;2.85;;;19.70;79.30;;;;;;5053806;28;20044;-71
2023/06/10 00:16:34;;;;;;;6.00;2.90;;;19.70;80.00;;;;;;5053834;28;20049;-69
2023/06/10 00:19:01;;;;;;;5.95;2.60;;;19.50;80.10;;;;;;5053640;28;20514;-70
2023/06/10 00:21:37;;;;;;;9.27;3.60;;;19.50;80.40;;;;;;5054088;28;20044;-69
2023/06/10 00:24:05;;;;;;;6.35;3.00;;;19.40;80.80;;;;;;5053500;28;20079;-69
2023/06/10 00:26:31;;;;;;;9.35;3.38;;;19.50;80.50;;;;;;5053919;28;20108;-71
2023/06/10 00:28:56;;;;;;;8.23;3.55;;;19.50;80.00;;;;;;5053742;28;20168;-71
2023/06/10 00:31:22;;;;;;;6.90;2.60;;;19.60;80.40;;;;;;5053425;28;20044;-71
2023/06/10 00:33:47;;;;;;;9.73;3.45;;;19.50;80.50;;;;;;5053971;28;20112;-70
2023/06/10 00:36:13;;;;;;;7.78;3.25;;;19.50;80.10;;;;;;5053559;28;20086;-70
2023/06/10 00:38:40;;;;;;;7.28;3.25;;;19.60;80.90;;;;;;5053375;28;20033;-71
2023/06/10 00:41:06;;;;;;;6.30;3.35;;;19.50;81.00;;;;;;5053396;28;20043;-70
2023/06/10 00:43:32;;;;;;;4.60;2.85;;;19.40;81.70;;;;;;5053229;28;20033;-71
2023/06/10 00:45:58;;;;;;;7.28;2.55;;;19.40;81.40;;;;;;5053990;28;20040;-70
2023/06/10 00:48:24;;;;;;;7.90;3.13;;;19.40;82.10;;;;;;5033826;28;20086;-70
2023/06/10 00:50:50;;;;;;;6.10;3.30;;;19.40;81.70;;;;;;5033376;28;20048;-71
2023/06/10 00:53:17;;;;;;;8.57;2.92;;;19.30;82.70;;;;;;5033219;28;20037;-71
2023/06/10 00:55:43;;;;;;;5.95;2.65;;;19.20;82.70;;;;;;5033200;28;20026;-71
2023/06/10 00:58:09;;;;;;;7.47;3.55;;;19.20;83.10;;;;;;5032756;28;20175;-70
2023/06/10 01:00:35;;;;;;;7.43;2.95;;;19.10;83.30;;;;;;5033542;28;20422;-70
2023/06/10 01:03:00;;;;;;;5.22;2.97;;;19.10;83.10;;;;;;5032115;28;20048;-71
2023/06/10 01:05:27;;;;;;;7.85;2.78;;;19.10;84.10;;;;;;5032987;28;20026;-70
2023/06/10 01:08:05;;;;;;;10.02;3.03;;;19.10;84.20;;;;;;5033058;28;20068;-70
2023/06/10 01:10:37;;;;;;;7.38;3.30;;;19.00;85.10;;;;;;5031909;28;20025;-70
2023/06/10 01:13:08;;;;;;;4.97;2.60;;;19.00;85.10;;;;;;5032984;28;20021;-71
2023/06/10 01:15:35;;;;;;;6.32;3.05;;;19.00;85.60;;;;;;5033249;28;20017;-70
2023/06/10 01:18:02;;;;;;;9.65;3.15;;;18.90;85.30;;;;;;5032634;28;20033;-71
2023/06/10 01:20:31;;;;;;;5.85;3.03;;;18.90;86.60;;;;;;5032794;28;20045;-71
2023/06/10 01:22:58;;;;;;;7.45;2.80;;;18.80;86.40;;;;;;5032436;28;20480;-71
2023/06/10 01:25:28;;;;;;;8.85;3.33;;;18.80;87.30;;;;;;5031495;28;20034;-69
2023/06/10 01:28:12;;;;;;;7.63;3.05;;;18.70;87.50;;;;;;5032992;28;20022;-71
2023/06/10 01:30:48;;;;;;;5.43;2.97;;;18.60;87.50;;;;;;5032420;28;20132;-72
2023/06/10 01:33:21;;;;;;;8.10;3.58;;;18.60;87.90;;;;;;5031593;28;20530;-72
2023/06/10 01:35:48;;;;;;;14.57;4.30;;;18.60;88.50;;;;;;5040400;28;20090;-72
2023/06/10 01:38:15;;;;;;;5.85;3.45;;;18.50;88.50;;;;;;5052315;28;20421;-71
2023/06/10 01:40:42;;;;;;;11.15;3.80;;;18.50;89.10;;;;;;5052181;28;20029;-71
2023/06/10 01:43:07;;;;;;;6.13;3.13;;;18.40;89.70;;;;;;5052431;28;20044;-71
2023/06/10 01:45:33;;;;;;;10.05;3.70;;;18.30;89.90;;;;;;5051430;28;20025;-71
2023/06/10 01:47:59;;;;;;;9.75;3.22;;;18.30;90.20;;;;;;5052130;28;20025;-72
2023/06/10 01:50:24;;;;;;;9.50;3.08;;;18.20;90.20;;;;;;5051893;28;20059;-71
2023/06/10 01:52:50;;;;;;;9.88;3.45;;;18.20;90.60;;;;;;5050868;28;20091;-70
2023/06/10 01:55:16;;;;;;;8.10;3.35;;;18.20;90.40;;;;;;5052190;28;20035;-71
2023/06/10 01:57:41;;;;;;;10.25;3.38;;;18.20;90.50;;;;;;5052352;28;20029;-71
2023/06/10 02:00:08;;;;;;;10.82;2.97;;;18.20;90.70;;;;;;5051816;28;20048;-70
2023/06/10 02:02:34;;;;;;;7.93;3.10;;;18.10;91.00;;;;;;5050541;28;20025;-70
2023/06/10 02:05:00;;;;;;;9.32;3.30;;;18.10;91.20;;;;;;5050587;28;20045;-71
2023/06/10 02:07:25;;;;;;;11.40;3.40;;;18.20;91.30;;;;;;5050667;28;20333;-71
2023/06/10 02:09:51;;;;;;;8.25;3.28;;;18.00;91.40;;;;;;5051705;28;20025;-71
2023/06/10 02:12:17;;;;;;;8.20;3.35;;;18.00;91.70;;;;;;5051796;28;20036;-71
2023/06/10 02:14:42;;;;;;;7.95;3.10;;;17.90;91.90;;;;;;5051580;28;20044;-70
2023/06/10 02:17:12;;;;;;;10.25;3.88;;;17.80;91.90;;;;;;5051735;28;20136;-71
2023/06/10 02:19:42;;;;;;;8.43;3.60;;;17.80;92.30;;;;;;5051619;28;20033;-71
2023/06/10 02:22:08;;;;;;;8.32;3.53;;;17.80;92.20;;;;;;5051453;28;20497;-70
2023/06/10 02:24:35;;;;;;;6.13;3.38;;;17.70;93.10;;;;;;5051608;28;20024;-71
2023/06/10 02:27:01;;;;;;;11.88;4.10;;;17.60;92.90;;;;;;5050307;28;20028;-71
2023/06/10 02:29:27;;;;;;;10.18;3.75;;;17.70;92.90;;;;;;5051351;28;20531;-69
2023/06/10 02:31:52;;;;;;;9.32;3.55;;;17.60;92.80;;;;;;5051591;28;20041;-69
2023/06/10 02:34:18;;;;;;;12.45;3.47;;;17.60;93.00;;;;;;5051500;28;20044;-69
2023/06/10 02:36:44;;;;;;;10.05;3.70;;;17.60;92.90;;;;;;5051647;28;20100;-70
2023/06/10 02:39:10;;;;;;;9.73;3.40;;;17.50;93.10;;;;;;5051453;28;20025;-70
2023/06/10 02:41:35;;;;;;;13.00;3.90;;;17.50;93.50;;;;;;5051342;28;20048;-70
2023/06/10 02:44:01;;;;;;;8.38;3.10;;;17.40;93.60;;;;;;5050944;28;20040;-70
2023/06/10 02:46:28;;;;;;;12.40;4.35;;;17.40;93.70;;;;;;5051055;28;20570;-70
2023/06/10 02:48:54;;;;;;;6.80;3.13;;;17.40;93.60;;;;;;5050658;28;20025;-70
2023/06/10 02:51:20;;;;;;;9.60;4.25;;;17.30;94.00;;;;;;5051139;28;20025;-69
2023/06/10 02:53:46;;;;;;;11.02;3.80;;;17.30;93.80;;;;;;5049736;28;20044;-70
2023/06/10 02:56:13;;;;;;;11.20;3.67;;;17.20;94.00;;;;;;5049660;28;20037;-70
2023/06/10 02:58:39;;;;;;;12.60;4.00;;;17.30;93.80;;;;;;5050699;28;20337;-69
2023/06/10 03:01:04;;;;;;;10.85;3.97;;;17.30;94.10;;;;;;5050773;28;20021;-70
2023/06/10 03:03:30;;;;;;;7.70;3.60;;;17.30;94.20;;;;;;5049860;28;20036;-70
2023/06/10 03:05:56;;;;;;;7.00;3.80;;;17.30;94.30;;;;;;5050734;28;20048;-70
2023/06/10 03:08:22;;;;;;;11.13;3.92;;;17.20;94.10;;;;;;5050574;28;20490;-70
2023/06/10 03:10:48;;;;;;;9.23;3.47;;;17.10;94.40;;;;;;5050560;28;20013;-70
2023/06/10 03:13:14;;;;;;;12.63;4.28;;;17.10;94.60;;;;;;5050329;28;20021;-69
2023/06/10 03:15:40;;;;;;;9.00;4.25;;;17.00;94.80;;;;;;5050969;28;20025;-70
2023/06/10 03:18:06;;;;;;;13.80;4.53;;;17.00;94.90;;;;;;5050620;28;20044;-69
2023/06/10 03:20:36;;;;;;;11.43;4.40;;;17.00;94.90;;;;;;5049293;28;20119;-69
2023/06/10 03:23:06;;;;;;;11.93;3.90;;;17.00;94.90;;;;;;5049148;28;20162;-69
2023/06/10 03:25:32;;;;;;;12.23;4.03;;;16.90;94.90;;;;;;5050332;28;20260;-70
2023/06/10 03:27:57;;;;;;;12.68;4.68;;;16.90;95.00;;;;;;5050784;28;20025;-71
2023/06/10 03:30:23;;;;;;;13.52;4.25;;;16.90;95.30;;;;;;5050196;28;20053;-70
2023/06/10 03:32:49;;;;;;;10.73;4.60;;;16.80;95.40;;;;;;5050338;28;20025;-70
2023/06/10 03:35:14;;;;;;;9.90;4.32;;;16.80;95.60;;;;;;5050425;28;20040;-70
2023/06/10 03:37:40;;;;;;;14.18;4.45;;;16.80;95.80;;;;;;5050361;28;20056;-70
2023/06/10 03:40:08;;;;;;;12.60;4.18;;;16.80;95.60;;;;;;5050491;28;20077;-70
2023/06/10 03:42:34;;;;;;;8.02;3.92;;;16.80;95.90;;;;;;5049632;28;20362;-70
2023/06/10 03:45:00;;;;;;;13.30;4.53;;;16.80;95.80;;;;;;5050234;28;20067;-70
2023/06/10 03:47:26;;;;;;;10.95;5.05;;;16.80;96.10;;;;;;5050281;28;20029;-69
2023/06/10 03:49:52;;;;;;;11.25;4.90;;;16.70;96.30;;;;;;5049025;28;20363;-69
2023/06/10 03:52:18;;;;;;;11.95;4.78;;;16.70;96.30;;;;;;5050117;28;20033;-70
2023/06/10 03:54:44;;;;;;;12.73;4.07;;;16.70;96.00;;;;;;5051143;28;20017;-69
2023/06/10 03:57:11;;;;;;;8.93;4.85;;;16.70;96.00;;;;;;5049136;28;20029;-69
2023/06/10 03:59:36;;;;;;;10.82;4.28;;;16.70;96.30;;;;;;5050219;28;20044;-70
2023/06/10 04:02:04;;;;;;;8.32;4.60;;;16.70;96.20;;;;;;5048967;28;20041;-70
2023/06/10 04:04:30;;;;;;;8.85;4.03;;;16.70;96.20;;;;;;5050142;28;20110;-70
2023/06/10 04:06:56;;;;;;;11.30;4.78;;;16.60;96.30;;;;;;5050457;28;20025;-70
2023/06/10 04:09:21;;;;;;;17.92;4.63;;;16.70;96.50;;;;;;5049988;28;20061;-69
2023/06/10 04:11:48;;;;;;;12.77;5.10;;;16.70;96.30;;;;;;5050214;28;20032;-70
2023/06/10 04:14:13;;;;;;;10.38;4.88;;;16.70;96.50;;;;;;5050057;28;20041;-70
2023/06/10 04:16:39;;;;;;;14.40;5.70;;;16.60;96.60;;;;;;5050058;28;20039;-69
2023/06/10 04:19:04;;;;;;;13.15;4.95;;;16.60;96.70;;;;;;5050164;28;20017;-69
2023/06/10 04:21:30;;;;;;;12.65;5.78;;;16.60;96.80;;;;;;5050633;28;20029;-70
2023/06/10 04:23:56;;;;;;;10.43;5.32;;;16.60;96.70;;;;;;5049888;28;20087;-70
2023/06/10 04:26:21;;;;;;;13.68;5.25;;;16.60;96.90;;;;;;5050076;28;20423;-70
2023/06/10 04:28:47;;;;;;;12.80;5.13;;;16.60;97.00;;;;;;5050082;28;20395;-69
2023/06/10 04:31:13;;;;;;;22.73;5.30;;;16.60;97.10;;;;;;5049550;28;20466;-70
2023/06/10 04:33:38;;;;;;;16.13;5.28;;;16.50;97.30;;;;;;5051454;28;20086;-70
2023/06/10 04:36:06;;;;;;;12.30;4.50;;;16.60;97.10;;;;;;5053263;28;20057;-69
2023/06/10 04:38:32;;;;;;;14.88;5.20;;;16.60;97.30;;;;;;5053230;28;20133;-70
2023/06/10 04:40:58;;;;;;;14.35;5.85;;;16.60;97.40;;;;;;5053271;28;20033;-70
2023/06/10 04:43:23;;;;;;;19.92;6.25;;;16.50;97.30;;;;;;5052879;28;20036;-70
2023/06/10 04:45:49;;;;;;;15.15;6.03;;;16.60;97.30;;;;;;5053522;28;20229;-69
2023/06/10 04:48:15;;;;;;;14.15;6.15;;;16.50;97.30;;;;;;5053223;28;20029;-69
2023/06/10 04:50:41;;;;;;;14.40;6.47;;;16.50;97.50;;;;;;5053047;28;20053;-71
2023/06/10 04:53:07;;;;;;;11.05;5.38;;;16.50;97.40;;;;;;5053059;28;20110;-70
2023/06/10 04:55:33;;;;;;;11.95;5.50;;;16.50;97.40;;;;;;5052950;28;20100;-70
2023/06/10 04:57:59;;;;;;;11.48;5.55;;;16.50;97.70;;;;;;5053042;28;20017;-69
2023/06/10 05:00:25;;;;;;;14.45;5.72;;;16.50;97.50;;;;;;5052186;28;20017;-70
2023/06/10 05:02:51;;;;;;;14.05;5.47;;;16.60;97.50;;;;;;5052943;28;20112;-69
2023/06/10 05:05:17;;;;;;;13.13;5.07;;;16.60;97.40;;;;;;5051749;28;20057;-69
2023/06/10 05:07:43;;;;;;;10.13;4.43;;;16.70;97.60;;;;;;5052934;28;20041;-69
2023/06/10 05:10:09;;;;;;;14.85;4.70;;;16.80;97.30;;;;;;5052741;28;20480;-70
2023/06/10 05:12:35;;;;;;;22.83;6.38;;;16.80;97.10;;;;;;5053109;28;20569;-70
2023/06/10 05:15:01;;;;;;;12.75;4.90;;;16.90;97.00;;;;;;5052536;28;20124;-71
2023/06/10 05:17:28;;;;;;;12.68;5.20;;;16.90;97.00;;;;;;5052300;28;20033;-69
2023/06/10 05:19:53;;;;;;;15.68;5.10;;;17.00;97.10;;;;;;5052616;28;20025;-70
2023/06/10 05:22:19;;;;;;;12.52;5.60;;;17.00;96.90;;;;;;5052450;28;20047;-69
2023/06/10 05:24:45;;;;;;;19.10;5.30;;;17.00;97.10;;;;;;5052758;28;20500;-71
2023/06/10 05:27:11;;;;;;;10.00;5.03;;;17.00;97.00;;;;;;5052385;28;20040;-70
2023/06/10 05:29:37;;;;;;;13.07;5.47;;;17.10;96.90;;;;;;5050938;28;20048;-69
2023/06/10 05:32:03;;;;;;;12.85;4.93;;;17.10;97.00;;;;;;5052510;28;20049;-69
2023/06/10 05:34:31;;;;;;;17.33;5.78;;;17.20;96.90;;;;;;5051756;28;20188;-71
2023/06/10 05:36:57;;;;;;;12.02;5.50;;;17.20;96.80;;;;;;5051720;28;20083;-69
2023/06/10 05:39:23;;;;;;;11.80;5.18;;;17.20;96.70;;;;;;5052121;28;20029;-70
2023/06/10 05:41:49;;;;;;;17.63;5.88;;;17.30;96.80;;;;;;5052125;28;20035;-69
2023/06/10 05:44:15;;;;;;;12.18;4.70;;;17.30;96.60;;;;;;5051341;28;20045;-69
2023/06/10 05:46:43;;;;;;;14.20;5.68;;;17.40;96.70;;;;;;5051419;28;20044;-70
2023/06/10 05:49:09;;;;;;;11.48;4.80;;;17.40;96.70;;;;;;5051984;28;20029;-70
2023/06/10 05:51:34;;;;;;;11.30;4.50;;;17.40;96.70;;;;;;5052562;28;20021;-69
2023/06/10 05:54:00;;;;;;;8.50;4.78;;;17.40;96.70;;;;;;5052045;28;20116;-69
2023/06/10 05:56:26;;;;;;;10.43;4.72;;;17.50;96.70;;;;;;5051999;28;20102;-69
2023/06/10 05:58:52;;;;;;;11.60;4.72;;;17.50;96.50;;;;;;5050417;28;20247;-68
2023/06/10 06:01:17;;;;;;;12.05;5.13;;;17.60;96.50;;;;;;5051731;28;20021;-70
2023/06/10 06:03:43;;;;;;;10.85;5.10;;;17.80;96.40;;;;;;5052104;28;20029;-71
2023/06/10 06:06:09;;;;;;;13.77;4.68;;;17.80;96.30;;;;;;5051723;28;20041;-71
2023/06/10 06:08:34;;;;;;;12.77;4.82;;;17.80;96.20;;;;;;5051779;28;20335;-70
2023/06/10 06:11:00;;;;;;;13.05;5.35;;;17.90;96.30;;;;;;5051809;28;20032;-70
2023/06/10 06:13:25;;;;;;;10.80;4.65;;;17.80;96.20;;;;;;5051299;28;20033;-71
2023/06/10 06:15:51;;;;;;;8.55;4.80;;;17.90;96.20;;;;;;5052172;28;20021;-70
2023/06/10 06:18:18;;;;;;;14.23;4.50;;;18.00;96.20;;;;;;5034875;28;20036;-70
2023/06/10 06:20:44;;;;;;;9.00;4.55;;;18.00;96.20;;;;;;5031240;28;20045;-71
2023/06/10 06:23:10;;;;;;;14.82;4.22;;;18.00;96.10;;;;;;5031390;28;20120;-72
2023/06/10 06:25:38;;;;;;;10.02;4.15;;;18.00;96.10;;;;;;5031337;28;20057;-70
2023/06/10 06:28:05;;;;;;;8.70;4.18;;;18.10;96.10;;;;;;5031348;28;20049;-70
2023/06/10 06:30:31;;;;;;;11.00;4.07;;;18.20;95.90;;;;;;5031525;28;20061;-72
2023/06/10 06:32:56;;;;;;;13.48;4.63;;;18.40;95.80;;;;;;5031169;28;20267;-71
2023/06/10 06:35:22;;;;;;;13.95;4.32;;;18.50;95.60;;;;;;5030094;28;20490;-72
2023/06/10 06:37:48;;;;;;;11.77;4.45;;;18.60;95.50;;;;;;5030992;28;20117;-72
2023/06/10 06:40:14;;;;;;;12.73;4.78;;;18.60;95.40;;;;;;5029771;28;20506;-70
2023/06/10 06:42:39;;;;;;;12.50;4.78;;;18.70;95.50;;;;;;5031735;28;20013;-71
2023/06/10 06:45:05;;;;;;;11.32;4.75;;;18.70;95.50;;;;;;5030802;28;20037;-70
2023/06/10 06:47:31;;;;;;;10.65;4.00;;;18.70;95.40;;;;;;5030945;28;20164;-71
2023/06/10 06:49:56;;;;;;;12.00;4.45;;;18.60;95.50;;;;;;5029674;28;20535;-71
2023/06/10 06:52:22;;;;;;;14.43;4.78;;;18.70;95.50;;;;;;5030826;28;20087;-71
2023/06/10 06:54:48;;;;;;;11.75;4.63;;;18.80;95.40;;;;;;5031285;28;20032;-72
2023/06/10 06:57:15;;;;;;;11.25;4.63;;;18.90;95.50;;;;;;5030419;28;20423;-70
2023/06/10 06:59:40;;;;;;;12.68;4.85;;;18.90;95.20;;;;;;5031163;28;20037;-71
2023/06/10 07:02:06;;;;;;;10.10;4.43;;;18.90;95.40;;;;;;5029658;28;20091;-72
2023/06/10 07:04:32;;;;;;;11.27;4.15;;;19.00;95.30;;;;;;5030631;28;20065;-70
2023/06/10 07:06:58;;;;;;;12.75;4.40;;;19.20;95.10;;;;;;5031020;28;20025;-70
2023/06/10 07:09:23;;;;;;;9.95;4.55;;;19.30;95.10;;;;;;5030528;28;20537;-70
2023/06/10 07:11:49;;;;;;;14.60;4.30;;;19.30;94.80;;;;;;5030664;28;20053;-69
2023/06/10 07:14:15;;;;;;;9.50;5.18;;;19.60;94.70;;;;;;5030338;28;20067;-69
2023/06/10 07:16:40;;;;;;;16.50;7.72;;;19.60;94.40;;;;;;5030842;28;20766;-68
2023/06/10 07:19:06;;;;;;;13.43;4.75;;;19.60;94.50;;;;;;5030524;28;20076;-69
2023/06/10 07:21:32;;;;;;;9.98;5.00;;;19.60;94.60;;;;;;5029819;28;20075;-68
2023/06/10 07:23:58;;;;;;;14.88;5.15;;;19.70;94.60;;;;;;5030324;28;20094;-70
2023/06/10 07:26:25;;;;;;;13.65;4.72;;;19.70;94.40;;;;;;5030308;28;20355;-69
2023/06/10 07:28:51;;;;;;;9.07;4.47;;;19.70;94.20;;;;;;5030482;28;20040;-69
2023/06/10 07:31:16;;;;;;;10.93;4.43;;;19.70;94.20;;;;;;5030448;28;20046;-69
2023/06/10 07:33:43;;;;;;;10.55;4.68;;;19.70;94.20;;;;;;5030866;28;20102;-69
2023/06/10 07:36:09;;;;;;;13.43;4.95;;;19.80;94.40;;;;;;5030650;28;20519;-70
2023/06/10 07:38:35;;;;;;;10.00;4.40;;;19.90;94.10;;;;;;5029165;28;20168;-69
2023/06/10 07:41:00;;;;;;;11.77;5.10;;;20.00;94.00;;;;;;5030467;28;20048;-69
2023/06/10 07:43:26;;;;;;;16.60;4.97;;;20.10;94.00;;;;;;5030067;28;20179;-68
2023/06/10 07:45:52;;;;;;;13.90;4.50;;;20.10;93.70;;;;;;5030744;28;20029;-69
2023/06/10 07:48:18;;;;;;;11.75;4.80;;;20.30;94.00;;;;;;5030612;28;20038;-68
2023/06/10 07:50:43;;;;;;;10.80;4.53;;;20.40;93.60;;;;;;5029356;28;20037;-68
2023/06/10 07:53:09;;;;;;;12.18;6.72;;;20.60;93.40;;;;;;5030504;28;20037;-70
2023/06/10 07:55:35;;;;;;;13.82;4.90;;;20.70;93.20;;;;;;5030190;28;20026;-69
2023/06/10 07:58:01;;;;;;;13.07;4.68;;;20.90;93.10;;;;;;5030290;28;20391;-69
2023/06/10 08:00:27;;;;;;;16.00;5.40;;;21.20;92.80;;;;;;5029538;28;20087;-69
2023/06/10 08:02:52;;;;;;;13.13;5.18;;;21.50;92.40;;;;;;5030094;28;20095;-68
2023/06/10 08:05:18;;;;;;;16.23;5.30;;;21.60;92.10;;;;;;5030157;28;20033;-69
2023/06/10 08:07:44;;;;;;;20.42;5.53;;;21.70;92.10;;;;;;5030255;28;20068;-69
2023/06/10 08:10:10;;;;;;;11.10;4.35;;;21.80;91.60;;;;;;5032952;28;20021;-69
2023/06/10 08:12:36;;;;;;;13.80;4.65;;;21.70;91.30;;;;;;5034285;28;20448;-69
2023/06/10 08:15:03;;;;;;;10.82;4.57;;;21.70;91.60;;;;;;5034118;28;20029;-69
2023/06/10 08:17:30;;;;;;;15.13;4.50;;;21.90;91.80;;;;;;5033997;28;20378;-68
2023/06/10 08:19:55;;;;;;;9.25;4.10;;;22.30;91.70;;;;;;5033845;28;20179;-69
2023/06/10 08:22:21;;;;;;;8.15;4.25;;;22.40;90.60;;;;;;5033634;28;20540;-70
2023/06/10 08:24:47;;;;;;;15.80;4.72;;;22.50;91.40;;;;;;5034032;28;20027;-70
2023/06/10 08:27:12;;;;;;;9.32;4.18;;;22.80;91.10;;;;;;5032547;28;20091;-73
2023/06/10 08:29:39;;;;;;;13.65;4.32;;;23.20;91.10;;;;;;5033901;28;20036;-71
2023/06/10 08:32:05;;;;;;;13.27;4.10;;;23.10;89.30;;;;;;5033534;28;20041;-71
2023/06/10 08:34:35;;;;;;;13.65;4.55;;;23.50;90.30;;;;;;5033508;28;20095;-70
2023/06/10 08:37:00;;;;;;;13.23;3.92;;;24.00;87.40;;;;;;5033863;28;20029;-71
2023/06/10 08:39:26;;;;;;;9.10;4.03;;;24.60;87.50;;;;;;5033776;28;20021;-72
2023/06/10 08:42:20;;;;;;;10.25;4.25;;;25.50;86.50;;;;;;5033496;28;20037;-71
2023/06/10 08:44:48;;;;;;;10.60;4.55;;;26.20;85.10;;;;;;5028889;28;20128;-69
2023/06/10 08:47:17;;;;;;;;;;;27.20;82.80;;;;;;5033510;28;20537;-71
2023/06/10 08:49:45;;;;;;;9.13;2.92;;;27.90;77.20;;;;;;5032970;28;20304;-71
2023/06/10 08:52:17;;;;;;;12.93;4.85;;;28.60;77.40;;;;;;5033092;28;20104;-71
2023/06/10 08:54:56;;;;;;;9.95;4.10;;;29.10;73.50;;;;;;5032508;28;20034;-71
2023/06/10 08:57:23;;;;;;;9.07;3.55;;;30.20;72.10;;;;;;5033108;28;20026;-72
2023/06/10 08:59:49;;;;;;;10.40;4.22;;;30.20;72.20;;;;;;5032982;28;20033;-72
2023/06/10 09:02:19;;;;;;;6.95;3.67;;;30.50;69.10;;;;;;5032764;28;20041;-71
2023/06/10 09:04:46;;;;;;;8.90;4.15;;;30.40;69.00;;;;;;5032763;28;20099;-71
2023/06/10 09:07:14;;;;;;;7.97;3.75;;;30.70;68.10;;;;;;5032729;28;20033;-70
2023/06/10 09:09:42;;;;;;;5.60;3.80;;;30.70;67.50;;;;;;5032058;28;20033;-71
2023/06/10 09:12:08;;;;;;;8.50;3.72;;;30.90;66.00;;;;;;5032698;28;20088;-71
2023/06/10 09:14:34;;;;;;;12.65;3.65;;;30.70;66.50;;;;;;5032552;28;20044;-71
2023/06/10 09:16:59;;;;;;;6.40;3.15;;;31.20;65.60;;;;;;5031492;28;20025;-70
2023/06/10 09:19:26;;;;;;;8.00;3.35;;;31.10;64.70;;;;;;5032343;28;20040;-71
2023/06/10 09:21:52;;;;;;;8.98;3.97;;;30.90;64.70;;;;;;5032874;28;20421;-71
2023/06/10 09:24:18;;;;;;;11.45;3.78;;;30.50;65.10;;;;;;5032247;28;20029;-71
2023/06/10 09:26:45;;;;;;;7.97;4.15;;;30.10;65.30;;;;;;5032142;28;20037;-71
2023/06/10 09:29:11;;;;;;;8.35;3.60;;;30.10;65.40;;;;;;5032331;28;20033;-71
2023/06/10 09:31:39;;;;;;;8.60;3.20;;;29.80;63.60;;;;;;5032198;28;20041;-71
2023/06/10 09:34:09;;;;;;;6.70;3.60;;;29.60;65.20;;;;;;5032241;28;20025;-72
2023/06/10 09:36:39;;;;;;;8.55;3.72;;;29.60;65.40;;;;;;5032577;28;20028;-71
2023/06/10 09:39:15;;;;;;;11.27;3.90;;;29.40;66.00;;;;;;5032198;28;20034;-72
2023/06/10 09:41:42;;;;;;;6.90;3.25;;;29.10;65.60;;;;;;5031873;28;20045;-71
2023/06/10 09:44:15;;;;;;;9.63;3.75;;;29.00;65.60;;;;;;5031866;28;20029;-71
2023/06/10 09:46:42;;;;;;;9.18;4.13;;;28.60;66.10;;;;;;5031870;28;20474;-71
2023/06/10 09:49:08;;;;;;;9.52;3.75;;;28.70;67.00;;;;;;5031880;28;20033;-71
2023/06/10 09:51:33;;;;;;;7.63;3.60;;;28.80;67.20;;;;;;5032584;28;20563;-70
2023/06/10 09:54:01;;;;;;;11.90;3.40;;;28.60;65.80;;;;;;5031986;28;20483;-71
2023/06/10 09:56:35;;;;;;;8.48;3.70;;;28.60;66.40;;;;;;5031466;28;20485;-71
2023/06/10 09:59:01;;;;;;;6.55;3.40;;;28.70;66.00;;;;;;5031739;28;20057;-70
2023/06/10 10:01:27;;;;;;;9.32;4.20;;;28.60;65.30;;;;;;5031311;28;20443;-71
2023/06/10 10:03:53;;;;;;;8.50;3.53;;;28.50;66.00;;;;;;5031904;28;20318;-71
2023/06/10 10:06:20;;;;;;;9.10;3.95;;;28.60;66.10;;;;;;5031548;28;20060;-70
2023/06/10 10:08:48;;;;;;;8.67;3.73;;;28.40;66.60;;;;;;5031429;28;20124;-71
2023/06/10 10:11:18;;;;;;;7.78;3.60;;;28.30;66.30;;;;;;5031258;28;20681;-70
2023/06/10 10:13:49;;;;;;;6.28;3.42;;;28.30;66.70;;;;;;5030118;28;20063;-71
2023/06/10 10:16:21;;;;;;;9.50;4.03;;;28.40;66.10;;;;;;5030951;28;20024;-72
2023/06/10 10:18:55;;;;;;;9.02;4.00;;;28.50;66.50;;;;;;5031562;28;20025;-72
2023/06/10 10:21:26;;;;;;;8.20;3.92;;;28.50;67.10;;;;;;5031281;28;20356;-71
2023/06/10 10:24:16;;;;;;;7.50;3.63;;;28.50;67.40;;;;;;5030981;28;20033;-71
2023/06/10 10:26:42;;;;;;;10.48;4.32;;;28.60;66.50;;;;;;5031335;28;20025;-71
2023/06/10 10:29:23;;;;;;;6.25;3.13;;;28.60;66.50;;;;;;5031148;28;20152;-71
2023/06/10 10:31:54;;;;;;;10.18;3.95;;;28.30;67.30;;;;;;5030379;28;20119;-71
2023/06/10 10:34:49;;;;;;;7.82;3.22;;;28.50;67.60;;;;;;5030891;28;20044;-72
2023/06/10 10:37:17;;;;;;;7.45;3.90;;;28.50;67.10;;;;;;5029439;28;20114;-71
2023/06/10 10:39:43;;;;;;;7.00;3.92;;;28.60;67.20;;;;;;5030025;28;20087;-71
2023/06/10 10:42:10;;;;;;;9.80;3.63;;;28.60;66.70;;;;;;5030682;28;20049;-72
2023/06/10 10:44:38;;;;;;;11.43;4.00;;;28.70;67.40;;;;;;5030651;28;20046;-70
2023/06/10 10:47:07;;;;;;;11.25;4.15;;;28.60;67.10;;;;;;5030695;28;20320;-72
2023/06/10 10:49:35;;;;;;;7.45;3.97;;;28.70;68.00;;;;;;5029528;28;20033;-70
2023/06/10 10:52:01;;;;;;;10.63;4.20;;;28.70;68.00;;;;;;5030851;28;20103;-71
2023/06/10 10:54:35;;;;;;;7.15;3.58;;;28.40;68.00;;;;;;5031176;28;20029;-70
2023/06/10 10:57:17;;;;;;;9.80;4.28;;;28.10;68.90;;;;;;5030664;28;20510;-72
2023/06/10 10:59:52;;;;;;;8.27;3.72;;;28.20;69.40;;;;;;5030541;28;20116;-71
2023/06/10 11:02:31;;;;;;;7.15;4.05;;;28.50;69.30;;;;;;5030685;28;20184;-71
2023/06/10 11:04:57;;;;;;;6.78;3.83;;;28.60;69.30;;;;;;5030466;28;20041;-70
2023/06/10 11:07:24;;;;;;;8.68;3.90;;;28.60;70.40;;;;;;5030553;28;20352;-72
2023/06/10 11:10:10;;;;;;;7.25;3.47;;;28.70;69.70;;;;;;5030954;28;20030;-72
2023/06/10 11:12:52;;;;;;;8.27;3.58;;;28.70;69.80;;;;;;5030885;28;20103;-71
2023/06/10 11:15:28;;;;;;;10.68;4.22;;;28.70;70.20;;;;;;5030370;28;20117;-70
2023/06/10 11:18:09;;;;;;;13.48;5.10;;;28.60;70.70;;;;;;5030460;28;20116;-70
2023/06/10 11:20:50;;;;;;;10.77;4.15;;;28.60;71.30;;;;;;5030347;28;20137;-70
2023/06/10 11:23:39;;;;;;;9.05;3.92;;;28.60;70.80;;;;;;5030235;28;20029;-69
2023/06/10 11:26:21;;;;;;;8.18;3.70;;;28.70;70.80;;;;;;5026863;28;20045;-71
2023/06/10 11:28:46;;;;;;;9.10;4.30;;;28.70;71.40;;;;;;5030324;28;20030;-70
2023/06/10 11:31:24;;;;;;;8.25;4.03;;;28.60;71.30;;;;;;5029928;28;20103;-71
2023/06/10 11:33:58;;;;;;;11.32;4.40;;;28.60;71.10;;;;;;5030656;28;20024;-70
2023/06/10 11:36:25;;;;;;;10.43;4.10;;;28.50;71.50;;;;;;5030274;28;20105;-70
2023/06/10 11:39:01;;;;;;;11.35;4.22;;;28.70;71.60;;;;;;5030476;28;20047;-71
2023/06/10 11:41:28;;;;;;;9.85;4.07;;;28.80;71.10;;;;;;5030067;28;20111;-70
2023/06/10 11:43:58;;;;;;;7.70;4.13;;;28.90;71.40;;;;;;5033550;28;20040;-71
2023/06/10 11:46:27;;;;;;;8.35;4.22;;;28.90;70.40;;;;;;5032835;28;20108;-70
2023/06/10 11:48:58;;;;;;;9.10;4.15;;;28.90;70.00;;;;;;5034356;28;20468;-70
2023/06/10 11:51:32;;;;;;;9.52;4.57;;;28.90;70.50;;;;;;5034014;28;20384;-70
2023/06/10 11:53:58;;;;;;;9.43;4.57;;;29.00;70.50;;;;;;5034212;28;20478;-71
2023/06/10 11:56:25;;;;;;;8.30;4.53;;;29.00;70.30;;;;;;5034183;28;20038;-71
2023/06/10 11:58:55;;;;;;;8.70;4.35;;;28.90;70.70;;;;;;5033940;28;20038;-71
2023/06/10 12:01:26;;;;;;;9.13;4.68;;;29.00;71.00;;;;;;5034109;28;20095;-71
2023/06/10 12:04:02;;;;;;;9.65;4.53;;;29.10;70.00;;;;;;5034992;28;20025;-70
2023/06/10 12:06:41;;;;;;;9.38;4.57;;;29.00;69.40;;;;;;5033391;28;20075;-70
2023/06/10 12:09:27;;;;;;;8.00;5.10;;;28.90;70.10;;;;;;5054728;28;20021;-70
2023/06/10 12:11:59;;;;;;;16.30;9.18;;;29.00;69.80;;;;;;5054949;28;20112;-71
2023/06/10 12:14:59;;;;;;;12.95;6.38;;;29.00;69.50;;;;;;5054842;28;20036;-70
2023/06/10 12:17:37;;;;;;;10.88;5.00;;;28.70;68.90;;;;;;5054708;28;20033;-71
2023/06/10 12:20:08;;;;;;;10.65;4.72;;;28.80;70.40;;;;;;5053548;28;20467;-71
2023/06/10 12:22:41;;;;;;;8.07;4.68;;;28.90;69.40;;;;;;5054431;28;20033;-70
2023/06/10 12:25:08;;;;;;;9.68;5.68;;;29.00;69.00;;;;;;5054269;28;20028;-71
2023/06/10 12:27:34;;;;;;;13.13;5.78;;;29.00;68.80;;;;;;5054906;28;20029;-70
2023/06/10 12:30:03;;;;;;;6.88;5.03;;;29.00;68.50;;;;;;5054294;28;20069;-72
2023/06/10 12:32:37;;;;;;;12.35;5.93;;;28.90;69.10;;;;;;5054392;28;20426;-71
2023/06/10 12:35:05;;;;;;;8.13;5.13;;;29.00;69.40;;;;;;5054539;28;20175;-71
2023/06/10 12:37:33;;;;;;;9.20;4.72;;;29.00;69.10;;;;;;5053981;28;20044;-71
2023/06/10 12:40:02;;;;;;;10.07;4.65;;;29.10;67.90;;;;;;5054602;28;20013;-71
2023/06/10 12:42:29;;;;;;;10.52;5.25;;;29.10;68.00;;;;;;5054329;28;20479;-71
2023/06/10 12:45:00;;;;;;;5.85;4.63;;;29.10;67.30;;;;;;5054146;28;20068;-72